Time,TemperatureF,DewpointF,PressureIn,WindDirection,WindDirectionDegrees,WindSpeedMPH,WindSpeedGustMPH,Humidity,HourlyPrecipIn,Conditions,Clouds,dailyrainin,SoftwareType,DateUTC
2013-03-11 00:01:00,35.0,35.0,30.22,SSW,203,0.0,0.0,100,0.00,,,0.03,,2013-03-11 07:01:00,
2013-03-11 00:11:00,34.0,34.0,30.21,SSW,203,0.0,0.0,100,0.00,,,0.03,,2013-03-11 07:11:00,
2013-03-11 00:21:00,34.0,34.0,30.21,SSW,203,0.0,0.0,100,0.00,,,0.03,,2013-03-11 07:21:00,
2013-03-11 00:31:00,34.0,34.0,30.21,SSW,203,0.0,0.0,100,0.00,,,0.03,,2013-03-11 07:31:00,
2013-03-11 00:41:00,34.0,34.0,30.21,SSW,203,0.0,0.0,100,0.00,,,0.03,,2013-03-11 07:41:00,
2013-03-11 00:52:00,34.0,34.0,30.21,SSW,203,0.0,0.0,100,0.00,,,0.03,,2013-03-11 07:52:00,
2013-03-11 01:01:00,34.0,34.0,30.22,SSW,203,0.0,0.0,100,0.00,,,0.03,,2013-03-11 08:01:00,
2013-03-11 01:11:00,34.0,34.0,30.22,SSW,203,0.0,0.0,100,0.00,,,0.03,,2013-03-11 08:11:00,
2013-03-11 01:21:00,33.0,33.0,30.22,SSW,203,0.0,0.0,100,0.00,,,0.03,,2013-03-11 08:21:00,
2013-03-11 01:31:00,33.0,33.0,30.22,SSW,203,5.0,8.0,100,0.00,,,0.03,,2013-03-11 08:31:00,
2013-03-11 01:41:00,33.0,33.0,30.22,SSW,203,5.0,8.0,100,0.00,,,0.03,,2013-03-11 08:41:00,
2013-03-11 01:52:00,33.0,33.0,30.22,SW,225,0.0,0.0,100,0.00,,,0.03,,2013-03-11 08:52:00,
2013-03-11 02:01:00,33.0,33.0,30.22,SW,225,6.0,8.0,100,0.00,,,0.03,,2013-03-11 09:01:00,
2013-03-11 02:11:00,33.0,33.0,30.22,SW,225,6.0,8.0,100,0.00,,,0.03,,2013-03-11 09:11:00,
2013-03-11 02:21:00,33.0,33.0,30.22,SW,225,5.0,8.0,100,0.00,,,0.03,,2013-03-11 09:21:00,
2013-03-11 02:31:00,33.0,33.0,30.22,SW,225,5.0,9.0,100,0.00,,,0.03,,2013-03-11 09:31:00,
2013-03-11 02:41:00,33.0,33.0,30.22,SW,225,5.0,9.0,100,0.00,,,0.03,,2013-03-11 09:41:00,
2013-03-11 02:52:00,33.0,33.0,30.23,SW,225,5.0,7.0,100,0.00,,,0.03,,2013-03-11 09:52:00,
2013-03-11 03:01:00,33.0,33.0,30.23,WSW,248,5.0,6.0,100,0.00,,,0.03,,2013-03-11 10:01:00,
2013-03-11 03:11:00,33.0,33.0,30.23,WSW,248,5.0,6.0,100,0.00,,,0.03,,2013-03-11 10:11:00,
2013-03-11 03:21:00,32.0,32.0,30.24,South,180,0.0,0.0,100,0.00,,,0.03,,2013-03-11 10:21:00,
2013-03-11 03:32:00,31.0,31.0,30.24,WSW,248,5.0,7.0,100,0.01,,,0.04,,2013-03-11 10:32:00,
2013-03-11 03:41:00,31.0,31.0,30.24,WSW,248,5.0,7.0,100,0.01,,,0.04,,2013-03-11 10:41:00,
2013-03-11 03:52:00,31.0,31.0,30.23,SW,225,5.0,6.0,100,0.01,,,0.04,,2013-03-11 10:52:00,
2013-03-11 04:01:00,32.0,32.0,30.23,WSW,248,1.0,7.0,100,0.01,,,0.04,,2013-03-11 11:01:00,
2013-03-11 04:11:00,32.0,32.0,30.23,WSW,248,1.0,7.0,100,0.01,,,0.04,,2013-03-11 11:11:00,
2013-03-11 04:21:00,32.0,32.0,30.23,West,270,0.0,0.0,100,0.01,,,0.04,,2013-03-11 11:21:00,
2013-03-11 04:31:00,32.0,32.0,30.24,West,270,0.0,0.0,100,0.00,,,0.04,,2013-03-11 11:31:00,
2013-03-11 04:41:00,32.0,32.0,30.24,West,270,0.0,0.0,100,0.00,,,0.04,,2013-03-11 11:41:00,
2013-03-11 04:52:00,32.0,32.0,30.24,SW,225,0.0,0.0,100,0.00,,,0.04,,2013-03-11 11:52:00,
2013-03-11 05:11:00,32.0,32.0,30.24,SW,225,0.0,0.0,100,0.00,,,0.04,,2013-03-11 12:11:00,
2013-03-11 05:21:00,31.0,31.0,30.24,SW,225,0.0,0.0,100,0.00,,,0.03,,2013-03-11 12:21:00,
2013-03-11 05:32:00,32.0,32.0,30.24,SW,225,0.0,0.0,100,0.00,,,0.03,,2013-03-11 12:32:00,
2013-03-11 05:42:00,32.0,32.0,30.24,SW,225,0.0,0.0,100,0.00,,,0.03,,2013-03-11 12:42:00,
2013-03-11 05:52:00,31.0,31.0,30.25,SW,225,0.0,0.0,100,0.00,,,0.03,,2013-03-11 12:52:00,
2013-03-11 06:01:00,31.0,31.0,30.25,SW,225,0.0,0.0,100,0.00,,,0.03,,2013-03-11 13:01:00,
2013-03-11 06:11:00,31.0,31.0,30.25,SW,225,0.0,0.0,100,0.00,,,0.03,,2013-03-11 13:11:00,
2013-03-11 06:21:00,30.0,30.0,30.25,SW,225,0.0,0.0,100,0.00,,,0.03,,2013-03-11 13:21:00,
2013-03-11 06:31:00,30.0,30.0,30.26,SW,225,0.0,0.0,100,0.00,,,0.03,,2013-03-11 13:31:00,
2013-03-11 06:41:00,30.0,30.0,30.26,SW,225,0.0,0.0,100,0.00,,,0.03,,2013-03-11 13:41:00,
2013-03-11 06:52:00,29.0,29.0,30.26,SW,225,0.0,0.0,100,0.00,,,0.03,,2013-03-11 13:52:00,
2013-03-11 07:01:00,29.0,29.0,30.26,SSE,158,0.0,0.0,100,0.00,,,0.03,,2013-03-11 14:01:00,
2013-03-11 07:11:00,29.0,29.0,30.26,SSE,158,0.0,0.0,100,0.00,,,0.03,,2013-03-11 14:11:00,
2013-03-11 07:21:00,29.0,29.0,30.27,SSE,158,0.0,0.0,100,0.00,,,0.03,,2013-03-11 14:21:00,
2013-03-11 07:31:00,29.0,29.0,30.27,SSE,158,0.0,0.0,100,0.00,,,0.04,,2013-03-11 14:31:00,
2013-03-11 07:41:00,29.0,29.0,30.27,SSE,158,0.0,0.0,100,0.00,,,0.04,,2013-03-11 14:41:00,
2013-03-11 07:52:00,29.0,29.0,30.27,SSE,158,0.0,0.0,100,0.00,,,0.04,,2013-03-11 14:52:00,
2013-03-11 08:01:00,29.0,29.0,30.27,SSE,158,0.0,0.0,100,0.00,,,0.04,,2013-03-11 15:01:00,
2013-03-11 08:11:00,29.0,29.0,30.27,SSE,158,0.0,0.0,100,0.00,,,0.04,,2013-03-11 15:11:00,
2013-03-11 08:21:00,29.0,29.0,30.27,SSE,158,0.0,0.0,100,0.00,,,0.04,,2013-03-11 15:21:00,
2013-03-11 08:31:00,30.0,30.0,30.27,SSE,158,0.0,0.0,100,0.00,,,0.04,,2013-03-11 15:31:00,
2013-03-11 08:42:00,30.0,30.0,30.27,SSE,158,0.0,0.0,100,0.00,,,0.04,,2013-03-11 15:42:00,
2013-03-11 08:52:00,30.0,30.0,30.28,SSE,158,0.0,0.0,100,0.00,,,0.04,,2013-03-11 15:52:00,
2013-03-11 09:02:00,30.0,30.0,30.29,South,180,3.0,3.0,100,0.00,,,0.04,,2013-03-11 16:02:00,
2013-03-11 09:12:00,30.0,30.0,30.29,South,180,3.0,3.0,100,0.00,,,0.04,,2013-03-11 16:12:00,
2013-03-11 09:22:00,32.0,32.0,30.29,SSE,158,0.0,0.0,100,0.00,,,0.04,,2013-03-11 16:22:00,
2013-03-11 09:32:00,32.0,32.0,30.29,SSE,158,0.0,0.0,100,0.00,,,0.04,,2013-03-11 16:32:00,
2013-03-11 09:42:00,32.0,32.0,30.29,SSE,158,0.0,0.0,100,0.00,,,0.04,,2013-03-11 16:42:00,
2013-03-11 09:52:00,34.0,34.0,30.29,SSE,158,0.0,0.0,100,0.00,,,0.04,,2013-03-11 16:52:00,
2013-03-11 10:02:00,35.0,35.0,30.30,SSE,158,0.0,0.0,100,0.00,,,0.04,,2013-03-11 17:02:00,
2013-03-11 10:13:00,35.0,35.0,30.30,SSE,158,0.0,0.0,100,0.00,,,0.04,,2013-03-11 17:13:00,
2013-03-11 10:23:00,37.0,37.0,30.30,SSE,158,0.0,0.0,100,0.00,,,0.04,,2013-03-11 17:23:00,
2013-03-11 10:33:00,38.0,38.0,30.30,SSE,158,0.0,0.0,100,0.00,,,0.04,,2013-03-11 17:33:00,
2013-03-11 10:42:00,38.0,38.0,30.30,SSE,158,0.0,0.0,100,0.00,,,0.04,,2013-03-11 17:42:00,
2013-03-11 10:52:00,39.0,39.0,30.31,WNW,293,0.0,0.0,100,0.00,,,0.04,,2013-03-11 17:52:00,
2013-03-11 11:02:00,41.0,41.0,30.30,West,270,0.0,0.0,100,0.00,,,0.04,,2013-03-11 18:02:00,
2013-03-11 11:21:00,43.0,43.0,30.30,SW,225,0.0,0.0,100,0.00,,,0.04,,2013-03-11 18:21:00,
2013-03-11 11:32:00,43.0,43.0,30.30,North,0,0.0,0.0,100,0.00,,,0.04,,2013-03-11 18:32:00,
2013-03-11 11:52:00,43.0,43.0,30.30,NNE,23,0.0,6.0,100,0.00,,,0.04,,2013-03-11 18:52:00,
2013-03-11 12:02:00,43.0,43.0,30.30,NNE,23,3.0,12.0,100,0.00,,,0.04,,2013-03-11 19:02:00,
2013-03-11 12:12:00,43.0,43.0,30.30,NNE,23,3.0,12.0,100,0.00,,,0.04,,2013-03-11 19:12:00,
2013-03-11 12:22:00,45.0,45.0,30.30,NNW,338,8.0,12.0,100,0.00,,,0.04,,2013-03-11 19:22:00,
2013-03-11 12:32:00,47.0,47.0,30.30,NNW,338,2.0,7.0,100,0.00,,,0.04,,2013-03-11 19:32:00,
2013-03-11 12:52:00,47.0,47.0,30.29,North,0,9.0,14.0,100,0.00,,,0.04,,2013-03-11 19:52:00,
2013-03-11 13:02:00,48.0,48.0,30.29,NNW,338,5.0,6.0,100,0.00,,,0.04,,2013-03-11 20:02:00,
2013-03-11 13:21:00,49.0,49.0,30.29,NNW,338,5.0,8.0,100,0.00,,,0.04,,2013-03-11 20:21:00,
2013-03-11 13:32:00,48.0,48.0,30.28,North,0,12.0,14.0,100,0.00,,,0.04,,2013-03-11 20:32:00,
2013-03-11 13:52:00,47.0,47.0,30.28,NNE,23,3.0,12.0,100,0.00,,,0.04,,2013-03-11 20:52:00,
2013-03-11 14:02:00,49.0,49.0,30.28,North,0,2.0,10.0,100,0.00,,,0.04,,2013-03-11 21:02:00,
2013-03-11 14:21:00,48.0,48.0,30.27,North,0,6.0,8.0,100,0.00,,,0.04,,2013-03-11 21:21:00,
2013-03-11 14:32:00,48.0,48.0,30.27,NE,45,2.0,10.0,100,0.00,,,0.04,,2013-03-11 21:32:00,
2013-03-11 14:52:00,47.0,47.0,30.26,North,0,10.0,13.0,100,0.00,,,0.04,,2013-03-11 21:52:00,
2013-03-11 15:02:00,48.0,48.0,30.26,North,0,1.0,5.0,100,0.00,,,0.04,,2013-03-11 22:02:00,
2013-03-11 15:21:00,49.0,49.0,30.26,NW,315,0.0,9.0,100,0.00,,,0.04,,2013-03-11 22:21:00,
2013-03-11 15:32:00,49.0,49.0,30.26,WNW,293,9.0,12.0,100,0.00,,,0.02,,2013-03-11 22:32:00,
2013-03-11 15:52:00,48.0,48.0,30.26,NNW,338,7.0,8.0,100,0.00,,,0.02,,2013-03-11 22:52:00,
2013-03-11 16:21:00,49.0,49.0,30.25,NW,315,2.0,5.0,100,0.00,,,0.02,,2013-03-11 23:21:00,
2013-03-11 16:32:00,48.0,48.0,30.25,WSW,248,0.0,0.0,100,0.00,,,0.02,,2013-03-11 23:32:00,
2013-03-11 16:42:00,48.0,48.0,30.25,NNW,338,7.0,10.0,100,0.00,,,0.02,,2013-03-11 23:42:00,
2013-03-11 16:52:00,48.0,48.0,30.25,NNW,338,7.0,10.0,100,0.00,,,0.02,,2013-03-11 23:52:00,
2013-03-11 17:02:00,48.0,48.0,30.25,SSW,203,0.0,0.0,100,0.00,,,0.02,,2013-03-12 00:02:00,
2013-03-11 17:22:00,48.0,48.0,30.25,SSW,203,6.0,8.0,100,0.00,,,0.02,,2013-03-12 00:22:00,
2013-03-11 17:32:00,47.0,47.0,30.24,WSW,248,1.0,3.0,100,0.00,,,0.02,,2013-03-12 00:32:00,
2013-03-11 17:52:00,47.0,47.0,30.24,West,270,6.0,8.0,100,0.00,,,0.02,,2013-03-12 00:52:00,
2013-03-11 18:02:00,46.0,46.0,30.24,WSW,248,0.0,0.0,100,0.00,,,0.02,,2013-03-12 01:02:00,
2013-03-11 18:21:00,46.0,46.0,30.24,WSW,248,2.0,3.0,100,0.00,,,0.02,,2013-03-12 01:21:00,
2013-03-11 18:32:00,45.0,45.0,30.24,WSW,248,1.0,5.0,100,0.00,,,0.02,,2013-03-12 01:32:00,
2013-03-11 18:52:00,45.0,45.0,30.24,SW,225,0.0,3.0,100,0.00,,,0.02,,2013-03-12 01:52:00,
2013-03-11 19:02:00,44.0,44.0,30.23,West,270,0.0,0.0,100,0.00,,,0.02,,2013-03-12 02:02:00,
2013-03-11 19:21:00,43.0,43.0,30.23,SW,225,0.0,0.0,100,0.00,,,0.02,,2013-03-12 02:21:00,
2013-03-11 19:32:00,43.0,43.0,30.23,WSW,248,0.0,0.0,100,0.00,,,0.02,,2013-03-12 02:32:00,
2013-03-11 19:52:00,43.0,43.0,30.23,WSW,248,0.0,0.0,100,0.00,,,0.02,,2013-03-12 02:52:00,
2013-03-11 20:01:00,42.0,42.0,30.23,WSW,248,0.0,0.0,100,0.00,,,0.02,,2013-03-12 03:01:00,
2013-03-11 20:21:00,42.0,42.0,30.23,SW,225,0.0,0.0,100,0.00,,,0.02,,2013-03-12 03:21:00,
2013-03-11 20:32:00,42.0,42.0,30.23,SW,225,0.0,0.0,100,0.00,,,0.02,,2013-03-12 03:32:00,
2013-03-11 20:52:00,40.0,40.0,30.23,SW,225,0.0,0.0,100,0.00,,,0.02,,2013-03-12 03:52:00,
2013-03-11 21:02:00,41.0,41.0,30.23,SW,225,0.0,0.0,100,0.00,,,0.02,,2013-03-12 04:02:00,
2013-03-11 21:52:00,40.0,40.0,30.22,SW,225,0.0,0.0,100,0.00,,,0.02,,2013-03-12 04:52:00,
2013-03-11 22:02:00,40.0,40.0,30.22,SW,225,0.0,0.0,100,0.00,,,0.02,,2013-03-12 05:02:00,
2013-03-11 22:32:00,39.0,39.0,30.21,SW,225,0.0,0.0,100,0.00,,,0.02,,2013-03-12 05:32:00,
2013-03-11 22:51:00,39.0,39.0,30.21,SW,225,0.0,0.0,100,0.00,,,0.02,,2013-03-12 05:51:00,
2013-03-11 23:02:00,39.0,39.0,30.21,SW,225,0.0,0.0,100,0.00,,,0.02,,2013-03-12 06:02:00,
2013-03-11 23:21:00,39.0,39.0,30.21,South,180,0.0,0.0,100,0.00,,,0.02,,2013-03-12 06:21:00,
2013-03-11 23:32:00,39.0,39.0,30.21,South,180,0.0,0.0,100,0.00,,,0.02,,2013-03-12 06:32:00,
2013-03-11 23:51:00,39.0,39.0,30.21,South,180,0.0,0.0,100,0.00,,,0.02,,2013-03-12 06:51:00,